Capitol Logistics 973

Operating for DHL



LPMA
Madeira Airport
Funchal, PT
LPPT
Aeroporto da Portela de Sacavem
Lisbon, PT

Activity Log

Date Flight Route Aircraft Duration
01/11/2022 CPX973 DEGU1E DEGUN NARTA UNPOT UNPO8A B738 1h 36m

Route Details

Aircraft Information
Group: European Fleet
Types: A30F,A31F,B738
Route Data
Demand: D
Distance: 522nm
Duration: 1h 55m
Recm'd Route: DEGU1E DEGUN NARTA UNPOT UNPO8A
Origin Wx: LPMA 270700Z 35007KT 9999 SCT016 18/12 Q1017
Dest. Wx: LPPT 270700Z 04005KT CAVOK 17/12 Q1018
Notes:

Financial History
Total Freight: 4,752lbs
Average Load: 4,752lbs/flt
Fuel Used: 6,972lbs
Avg. Fuel Used: 6,972lbs/flt
Fuel Expense: $6,725
Avg. Fuel Expense: $6,725
Avg. Fuel Cost: $0.96/lbs
Total Gross Income: $9,699
Pilot Pay: $259
Total Expenses: $3,530
Total Revenue: $-908
Average Revenue: $9,698.83